Terminal Aerodrome Forecast
Issued by NWS

Home | Current Version | Previous Version | Text Only | Print | Product List | Glossary On
Versions: 1 2 3 4 5 6 7 8 9 10 11 12 13 14
000
FTUS41 KPHI 231216 AAA
TAFPNE
TAF AMD
KPNE 231216Z 2312/2412 VRB03KT 1SM BR OVC003
      TEMPO 2312/2314 1/4SM FG VV001
     FM231500 22004KT 3SM BR BKN006
     FM231600 24006KT P6SM BKN025
     FM231900 20006KT P6SM SCT040
     FM240700 18004KT 2SM BR OVC008=

USA.gov is the U.S. government's official web portal to all federal, state and local government web resources and services.